Bamfield, Canada
Current Conditions -  °F | °C
As of 4:13 PM on Wednesday 26 Nov 2014 (Local Time) from CYCD Reporting Station
Drizzle Drizzle  
Wind Chill: 46°   Ceiling: 4000
Heat Index: 46°   Visibility: 6mi
Dew Point: 46°   Wind: 0mph
Humidity: 100%   Direction: NA
Pressure: 29.91"   Gusts: NA
Location:  48.83°N, 125.15°W
Report Text: CYCD 270013Z 00000KT 6SM -DZ BR VCFG FEW003 BKN040 OVC080 08/08 A2991 RMK ST2SC3AC3 VIS LWR N SLP130
Loading
Personal Weather Stations






























Interactive Weather Map New forecast layout! Learn more

10-Day Weather Forecast

Advertisements
Track Severe Weather on mobile